sensor_id;sensor_type;location;lat;lon;timestamp;P1;durP1;ratioP1;P2;durP2;ratioP2
65368;SDS011;51970;53.484;49.488;2024-02-28T00:03:33;13.73;;;5.75;;
65368;SDS011;51970;53.484;49.488;2024-02-28T00:05:59;15.02;;;7.75;;
65368;SDS011;51970;53.484;49.488;2024-02-28T00:08:25;13.30;;;6.40;;
65368;SDS011;51970;53.484;49.488;2024-02-28T00:13:17;16.25;;;9.10;;
65368;SDS011;51970;53.484;49.488;2024-02-28T00:15:45;16.58;;;7.47;;
65368;SDS011;51970;53.484;49.488;2024-02-28T00:18:11;23.70;;;10.43;;
65368;SDS011;51970;53.484;49.488;2024-02-28T00:20:37;24.05;;;10.55;;
65368;SDS011;51970;53.484;49.488;2024-02-28T00:23:04;27.75;;;10.38;;
65368;SDS011;51970;53.484;49.488;2024-02-28T00:25:30;27.55;;;11.38;;
65368;SDS011;51970;53.484;49.488;2024-02-28T00:27:56;24.65;;;9.40;;
65368;SDS011;51970;53.484;49.488;2024-02-28T00:30:22;32.42;;;9.88;;
65368;SDS011;51970;53.484;49.488;2024-02-28T00:35:14;16.42;;;7.63;;
65368;SDS011;51970;53.484;49.488;2024-02-28T00:37:40;14.00;;;6.53;;
65368;SDS011;51970;53.484;49.488;2024-02-28T00:40:07;13.65;;;6.25;;
65368;SDS011;51970;53.484;49.488;2024-02-28T00:42:34;13.75;;;6.00;;
65368;SDS011;51970;53.484;49.488;2024-02-28T00:45:01;22.23;;;7.20;;
65368;SDS011;51970;53.484;49.488;2024-02-28T00:47:28;23.02;;;5.70;;
65368;SDS011;51970;53.484;49.488;2024-02-28T00:49:54;17.67;;;7.20;;
65368;SDS011;51970;53.484;49.488;2024-02-28T00:54:46;15.73;;;5.80;;
65368;SDS011;51970;53.484;49.488;2024-02-28T00:57:12;17.05;;;6.05;;
65368;SDS011;51970;53.484;49.488;2024-02-28T00:59:39;16.40;;;3.75;;
65368;SDS011;51970;53.484;49.488;2024-02-28T01:04:31;16.67;;;5.35;;
65368;SDS011;51970;53.484;49.488;2024-02-28T01:06:57;9.70;;;5.15;;
65368;SDS011;51970;53.484;49.488;2024-02-28T01:09:23;13.90;;;4.60;;
65368;SDS011;51970;53.484;49.488;2024-02-28T01:11:49;14.32;;;4.60;;
65368;SDS011;51970;53.484;49.488;2024-02-28T01:14:15;9.43;;;4.80;;
65368;SDS011;51970;53.484;49.488;2024-02-28T01:16:41;10.48;;;3.67;;
65368;SDS011;51970;53.484;49.488;2024-02-28T01:19:07;13.52;;;4.72;;
65368;SDS011;51970;53.484;49.488;2024-02-28T01:21:33;14.73;;;3.90;;
65368;SDS011;51970;53.484;49.488;2024-02-28T01:23:59;32.72;;;5.80;;
65368;SDS011;51970;53.484;49.488;2024-02-28T01:26:25;10.30;;;5.30;;
65368;SDS011;51970;53.484;49.488;2024-02-28T01:28:51;13.13;;;3.70;;
65368;SDS011;51970;53.484;49.488;2024-02-28T01:31:18;22.08;;;5.28;;
65368;SDS011;51970;53.484;49.488;2024-02-28T01:33:44;19.80;;;6.65;;
65368;SDS011;51970;53.484;49.488;2024-02-28T01:36:11;20.10;;;6.32;;
65368;SDS011;51970;53.484;49.488;2024-02-28T01:38:37;23.08;;;7.38;;
65368;SDS011;51970;53.484;49.488;2024-02-28T01:41:03;36.80;;;8.18;;
65368;SDS011;51970;53.484;49.488;2024-02-28T01:43:31;21.05;;;8.32;;
65368;SDS011;51970;53.484;49.488;2024-02-28T01:46:01;14.15;;;7.72;;
65368;SDS011;51970;53.484;49.488;2024-02-28T01:48:31;19.45;;;6.35;;
65368;SDS011;51970;53.484;49.488;2024-02-28T01:50:58;26.95;;;7.65;;
65368;SDS011;51970;53.484;49.488;2024-02-28T01:53:24;20.58;;;7.22;;
65368;SDS011;51970;53.484;49.488;2024-02-28T01:55:51;48.80;;;9.48;;
65368;SDS011;51970;53.484;49.488;2024-02-28T01:58:17;24.35;;;10.15;;
65368;SDS011;51970;53.484;49.488;2024-02-28T02:00:44;21.73;;;7.97;;
65368;SDS011;51970;53.484;49.488;2024-02-28T02:03:12;25.63;;;10.82;;
65368;SDS011;51970;53.484;49.488;2024-02-28T02:05:38;17.85;;;7.43;;
65368;SDS011;51970;53.484;49.488;2024-02-28T02:08:04;12.52;;;5.63;;
65368;SDS011;51970;53.484;49.488;2024-02-28T02:10:31;11.43;;;7.45;;
65368;SDS011;51970;53.484;49.488;2024-02-28T02:13:03;24.73;;;5.85;;
65368;SDS011;51970;53.484;49.488;2024-02-28T02:15:30;12.93;;;5.47;;
65368;SDS011;51970;53.484;49.488;2024-02-28T02:17:56;8.32;;;3.78;;
65368;SDS011;51970;53.484;49.488;2024-02-28T02:20:22;14.05;;;4.22;;
65368;SDS011;51970;53.484;49.488;2024-02-28T02:22:52;7.70;;;4.03;;
65368;SDS011;51970;53.484;49.488;2024-02-28T02:25:19;8.50;;;4.82;;
65368;SDS011;51970;53.484;49.488;2024-02-28T02:27:45;8.68;;;4.70;;
65368;SDS011;51970;53.484;49.488;2024-02-28T02:30:11;11.48;;;4.13;;
65368;SDS011;51970;53.484;49.488;2024-02-28T02:32:37;14.23;;;4.05;;
65368;SDS011;51970;53.484;49.488;2024-02-28T02:35:03;11.23;;;3.95;;
65368;SDS011;51970;53.484;49.488;2024-02-28T02:37:30;8.65;;;4.70;;
65368;SDS011;51970;53.484;49.488;2024-02-28T02:39:56;10.23;;;4.57;;
65368;SDS011;51970;53.484;49.488;2024-02-28T02:42:22;9.77;;;5.07;;
65368;SDS011;51970;53.484;49.488;2024-02-28T02:44:48;8.00;;;5.28;;
65368;SDS011;51970;53.484;49.488;2024-02-28T02:47:14;8.75;;;3.80;;
65368;SDS011;51970;53.484;49.488;2024-02-28T02:49:41;6.00;;;2.95;;
65368;SDS011;51970;53.484;49.488;2024-02-28T02:52:07;6.60;;;3.40;;
65368;SDS011;51970;53.484;49.488;2024-02-28T02:54:33;6.55;;;2.63;;
65368;SDS011;51970;53.484;49.488;2024-02-28T02:59:25;13.88;;;2.97;;
65368;SDS011;51970;53.484;49.488;2024-02-28T03:01:52;9.23;;;4.25;;
65368;SDS011;51970;53.484;49.488;2024-02-28T03:04:18;11.52;;;5.78;;
65368;SDS011;51970;53.484;49.488;2024-02-28T03:09:10;10.90;;;3.72;;
65368;SDS011;51970;53.484;49.488;2024-02-28T03:14:02;4.55;;;1.98;;
65368;SDS011;51970;53.484;49.488;2024-02-28T03:16:28;8.73;;;3.55;;
65368;SDS011;51970;53.484;49.488;2024-02-28T03:18:54;8.32;;;4.47;;
65368;SDS011;51970;53.484;49.488;2024-02-28T03:21:21;11.32;;;5.43;;
65368;SDS011;51970;53.484;49.488;2024-02-28T03:23:47;6.47;;;3.00;;
65368;SDS011;51970;53.484;49.488;2024-02-28T03:26:13;10.30;;;6.63;;
65368;SDS011;51970;53.484;49.488;2024-02-28T03:28:39;18.33;;;3.72;;
65368;SDS011;51970;53.484;49.488;2024-02-28T03:31:05;21.05;;;8.32;;
65368;SDS011;51970;53.484;49.488;2024-02-28T03:33:31;18.13;;;6.30;;
65368;SDS011;51970;53.484;49.488;2024-02-28T03:35:59;15.05;;;8.50;;
65368;SDS011;51970;53.484;49.488;2024-02-28T03:40:51;21.08;;;3.70;;
65368;SDS011;51970;53.484;49.488;2024-02-28T03:43:17;5.88;;;3.15;;
65368;SDS011;51970;53.484;49.488;2024-02-28T03:45:43;6.50;;;3.28;;
65368;SDS011;51970;53.484;49.488;2024-02-28T03:48:09;9.70;;;5.20;;
65368;SDS011;51970;53.484;49.488;2024-02-28T03:50:36;9.18;;;3.85;;
65368;SDS011;51970;53.484;49.488;2024-02-28T03:53:03;17.75;;;4.28;;
65368;SDS011;51970;53.484;49.488;2024-02-28T03:55:29;8.02;;;3.70;;
65368;SDS011;51970;53.484;49.488;2024-02-28T03:57:55;7.63;;;4.13;;
65368;SDS011;51970;53.484;49.488;2024-02-28T04:00:22;9.85;;;4.13;;
65368;SDS011;51970;53.484;49.488;2024-02-28T04:05:14;6.97;;;3.58;;
65368;SDS011;51970;53.484;49.488;2024-02-28T04:10:06;8.27;;;4.18;;
65368;SDS011;51970;53.484;49.488;2024-02-28T04:12:32;12.77;;;5.00;;
65368;SDS011;51970;53.484;49.488;2024-02-28T04:14:58;9.95;;;5.22;;
65368;SDS011;51970;53.484;49.488;2024-02-28T04:17:25;28.25;;;6.40;;
65368;SDS011;51970;53.484;49.488;2024-02-28T04:19:51;18.67;;;8.73;;
65368;SDS011;51970;53.484;49.488;2024-02-28T04:22:17;15.57;;;5.38;;
65368;SDS011;51970;53.484;49.488;2024-02-28T04:24:43;27.63;;;6.78;;
65368;SDS011;51970;53.484;49.488;2024-02-28T04:27:09;10.43;;;5.20;;
65368;SDS011;51970;53.484;49.488;2024-02-28T04:29:37;15.30;;;6.80;;
65368;SDS011;51970;53.484;49.488;2024-02-28T04:32:04;12.75;;;6.50;;
65368;SDS011;51970;53.484;49.488;2024-02-28T04:34:30;13.25;;;6.32;;
65368;SDS011;51970;53.484;49.488;2024-02-28T04:36:56;16.77;;;7.90;;
65368;SDS011;51970;53.484;49.488;2024-02-28T04:39:22;19.67;;;7.32;;
65368;SDS011;51970;53.484;49.488;2024-02-28T04:41:48;12.65;;;5.50;;
65368;SDS011;51970;53.484;49.488;2024-02-28T04:44:16;11.38;;;6.20;;
65368;SDS011;51970;53.484;49.488;2024-02-28T04:46:43;14.02;;;5.97;;
65368;SDS011;51970;53.484;49.488;2024-02-28T04:49:10;19.75;;;6.25;;
65368;SDS011;51970;53.484;49.488;2024-02-28T04:51:36;18.45;;;9.10;;
65368;SDS011;51970;53.484;49.488;2024-02-28T04:54:02;14.50;;;5.57;;
65368;SDS011;51970;53.484;49.488;2024-02-28T04:56:28;13.80;;;7.68;;
65368;SDS011;51970;53.484;49.488;2024-02-28T04:58:55;19.80;;;7.35;;
65368;SDS011;51970;53.484;49.488;2024-02-28T05:01:21;16.35;;;7.93;;
65368;SDS011;51970;53.484;49.488;2024-02-28T05:03:48;18.65;;;6.55;;
65368;SDS011;51970;53.484;49.488;2024-02-28T05:08:40;29.08;;;5.80;;
65368;SDS011;51970;53.484;49.488;2024-02-28T05:11:06;11.93;;;5.50;;
65368;SDS011;51970;53.484;49.488;2024-02-28T05:13:32;17.10;;;7.97;;
65368;SDS011;51970;53.484;49.488;2024-02-28T05:15:58;16.73;;;5.97;;
65368;SDS011;51970;53.484;49.488;2024-02-28T05:20:50;14.43;;;6.88;;
65368;SDS011;51970;53.484;49.488;2024-02-28T05:23:16;22.67;;;8.05;;
65368;SDS011;51970;53.484;49.488;2024-02-28T05:25:42;11.80;;;5.57;;
65368;SDS011;51970;53.484;49.488;2024-02-28T05:30:35;12.32;;;5.57;;
65368;SDS011;51970;53.484;49.488;2024-02-28T05:33:01;11.52;;;6.47;;
65368;SDS011;51970;53.484;49.488;2024-02-28T05:37:53;9.40;;;4.75;;
65368;SDS011;51970;53.484;49.488;2024-02-28T05:40:22;11.07;;;5.07;;
65368;SDS011;51970;53.484;49.488;2024-02-28T05:42:48;12.90;;;5.50;;
65368;SDS011;51970;53.484;49.488;2024-02-28T05:45:14;19.00;;;5.25;;
65368;SDS011;51970;53.484;49.488;2024-02-28T05:50:07;10.98;;;5.53;;
65368;SDS011;51970;53.484;49.488;2024-02-28T05:52:35;13.73;;;5.28;;
65368;SDS011;51970;53.484;49.488;2024-02-28T05:55:01;17.83;;;6.07;;
65368;SDS011;51970;53.484;49.488;2024-02-28T05:57:28;14.07;;;4.65;;
65368;SDS011;51970;53.484;49.488;2024-02-28T06:02:20;16.65;;;7.30;;
65368;SDS011;51970;53.484;49.488;2024-02-28T06:07:12;28.20;;;13.85;;
65368;SDS011;51970;53.484;49.488;2024-02-28T06:12:04;23.10;;;11.48;;
65368;SDS011;51970;53.484;49.488;2024-02-28T06:14:30;14.52;;;7.28;;
65368;SDS011;51970;53.484;49.488;2024-02-28T06:19:22;13.93;;;6.53;;
65368;SDS011;51970;53.484;49.488;2024-02-28T06:24:15;18.25;;;4.78;;
65368;SDS011;51970;53.484;49.488;2024-02-28T06:29:08;10.93;;;5.53;;
65368;SDS011;51970;53.484;49.488;2024-02-28T06:34:00;15.68;;;5.22;;
65368;SDS011;51970;53.484;49.488;2024-02-28T06:36:27;12.32;;;6.40;;
65368;SDS011;51970;53.484;49.488;2024-02-28T06:38:54;19.70;;;8.02;;
65368;SDS011;51970;53.484;49.488;2024-02-28T06:41:20;14.30;;;7.50;;
65368;SDS011;51970;53.484;49.488;2024-02-28T06:43:46;17.23;;;8.90;;
65368;SDS011;51970;53.484;49.488;2024-02-28T06:46:12;18.20;;;8.00;;
65368;SDS011;51970;53.484;49.488;2024-02-28T06:48:39;15.45;;;5.75;;
65368;SDS011;51970;53.484;49.488;2024-02-28T06:53:31;19.73;;;7.50;;
65368;SDS011;51970;53.484;49.488;2024-02-28T06:58:23;19.02;;;8.73;;
65368;SDS011;51970;53.484;49.488;2024-02-28T07:00:50;16.92;;;6.95;;
65368;SDS011;51970;53.484;49.488;2024-02-28T07:03:17;22.15;;;7.35;;
65368;SDS011;51970;53.484;49.488;2024-02-28T07:05:43;7.82;;;3.65;;
65368;SDS011;51970;53.484;49.488;2024-02-28T07:08:09;10.77;;;3.13;;
65368;SDS011;51970;53.484;49.488;2024-02-28T07:10:36;6.95;;;2.65;;
65368;SDS011;51970;53.484;49.488;2024-02-28T07:13:03;6.22;;;2.97;;
65368;SDS011;51970;53.484;49.488;2024-02-28T07:15:29;10.60;;;3.17;;
65368;SDS011;51970;53.484;49.488;2024-02-28T07:17:55;5.55;;;2.83;;
65368;SDS011;51970;53.484;49.488;2024-02-28T07:20:21;8.27;;;3.83;;
65368;SDS011;51970;53.484;49.488;2024-02-28T07:22:47;6.38;;;3.13;;
65368;SDS011;51970;53.484;49.488;2024-02-28T07:25:13;8.43;;;3.03;;
65368;SDS011;51970;53.484;49.488;2024-02-28T07:27:40;9.63;;;2.95;;
65368;SDS011;51970;53.484;49.488;2024-02-28T07:30:06;7.40;;;2.90;;
65368;SDS011;51970;53.484;49.488;2024-02-28T07:32:32;7.25;;;3.58;;
65368;SDS011;51970;53.484;49.488;2024-02-28T07:35:00;7.93;;;3.80;;
65368;SDS011;51970;53.484;49.488;2024-02-28T07:37:27;10.63;;;3.00;;
65368;SDS011;51970;53.484;49.488;2024-02-28T07:39:53;8.18;;;3.38;;
65368;SDS011;51970;53.484;49.488;2024-02-28T07:42:19;13.98;;;2.95;;
65368;SDS011;51970;53.484;49.488;2024-02-28T07:44:45;8.15;;;3.22;;
65368;SDS011;51970;53.484;49.488;2024-02-28T07:47:11;9.55;;;3.13;;
65368;SDS011;51970;53.484;49.488;2024-02-28T07:49:38;9.88;;;3.90;;
65368;SDS011;51970;53.484;49.488;2024-02-28T07:52:04;7.97;;;3.92;;
65368;SDS011;51970;53.484;49.488;2024-02-28T07:54:30;13.52;;;4.80;;
65368;SDS011;51970;53.484;49.488;2024-02-28T07:56:56;13.65;;;3.35;;
65368;SDS011;51970;53.484;49.488;2024-02-28T07:59:22;7.53;;;2.78;;
65368;SDS011;51970;53.484;49.488;2024-02-28T08:01:48;8.20;;;3.70;;
65368;SDS011;51970;53.484;49.488;2024-02-28T08:04:14;5.30;;;2.58;;
65368;SDS011;51970;53.484;49.488;2024-02-28T08:06:41;8.20;;;4.05;;
65368;SDS011;51970;53.484;49.488;2024-02-28T08:09:07;8.05;;;4.03;;
65368;SDS011;51970;53.484;49.488;2024-02-28T08:11:33;16.52;;;4.30;;
65368;SDS011;51970;53.484;49.488;2024-02-28T08:13:59;15.07;;;2.85;;
65368;SDS011;51970;53.484;49.488;2024-02-28T08:16:25;7.25;;;2.78;;
65368;SDS011;51970;53.484;49.488;2024-02-28T08:18:51;8.45;;;2.38;;
65368;SDS011;51970;53.484;49.488;2024-02-28T08:21:17;9.15;;;3.90;;
65368;SDS011;51970;53.484;49.488;2024-02-28T08:23:44;12.98;;;3.35;;
65368;SDS011;51970;53.484;49.488;2024-02-28T08:26:10;11.80;;;3.00;;
65368;SDS011;51970;53.484;49.488;2024-02-28T08:28:36;13.15;;;3.70;;
65368;SDS011;51970;53.484;49.488;2024-02-28T08:31:02;12.82;;;3.38;;
65368;SDS011;51970;53.484;49.488;2024-02-28T08:33:29;5.72;;;2.50;;
65368;SDS011;51970;53.484;49.488;2024-02-28T08:35:55;8.52;;;4.57;;
65368;SDS011;51970;53.484;49.488;2024-02-28T08:38:22;9.60;;;3.40;;
65368;SDS011;51970;53.484;49.488;2024-02-28T08:40:49;11.27;;;3.97;;
65368;SDS011;51970;53.484;49.488;2024-02-28T08:43:15;7.00;;;3.05;;
65368;SDS011;51970;53.484;49.488;2024-02-28T08:45:41;10.95;;;3.78;;
65368;SDS011;51970;53.484;49.488;2024-02-28T08:48:07;13.35;;;4.25;;
65368;SDS011;51970;53.484;49.488;2024-02-28T08:50:34;9.75;;;3.53;;
65368;SDS011;51970;53.484;49.488;2024-02-28T08:53:01;7.88;;;3.88;;
65368;SDS011;51970;53.484;49.488;2024-02-28T08:55:28;9.43;;;2.70;;
65368;SDS011;51970;53.484;49.488;2024-02-28T08:57:54;10.43;;;3.47;;
65368;SDS011;51970;53.484;49.488;2024-02-28T09:00:20;10.70;;;2.65;;
65368;SDS011;51970;53.484;49.488;2024-02-28T09:02:47;11.48;;;4.22;;
65368;SDS011;51970;53.484;49.488;2024-02-28T09:05:13;7.90;;;4.22;;
65368;SDS011;51970;53.484;49.488;2024-02-28T09:07:39;9.80;;;3.63;;
65368;SDS011;51970;53.484;49.488;2024-02-28T09:10:06;13.50;;;3.20;;
65368;SDS011;51970;53.484;49.488;2024-02-28T09:12:32;11.80;;;4.32;;
65368;SDS011;51970;53.484;49.488;2024-02-28T09:14:58;8.80;;;3.97;;
65368;SDS011;51970;53.484;49.488;2024-02-28T09:17:25;10.45;;;3.90;;
65368;SDS011;51970;53.484;49.488;2024-02-28T09:19:52;16.17;;;4.07;;
65368;SDS011;51970;53.484;49.488;2024-02-28T09:22:19;10.50;;;3.78;;
65368;SDS011;51970;53.484;49.488;2024-02-28T09:24:46;17.33;;;3.88;;
65368;SDS011;51970;53.484;49.488;2024-02-28T09:27:13;13.98;;;3.22;;
65368;SDS011;51970;53.484;49.488;2024-02-28T09:29:39;10.05;;;3.10;;
65368;SDS011;51970;53.484;49.488;2024-02-28T09:32:06;8.43;;;3.22;;
65368;SDS011;51970;53.484;49.488;2024-02-28T09:34:32;12.50;;;3.97;;
65368;SDS011;51970;53.484;49.488;2024-02-28T09:36:58;17.15;;;4.47;;
65368;SDS011;51970;53.484;49.488;2024-02-28T09:39:24;8.25;;;3.78;;
65368;SDS011;51970;53.484;49.488;2024-02-28T09:41:51;23.52;;;4.20;;
65368;SDS011;51970;53.484;49.488;2024-02-28T09:44:17;11.13;;;3.75;;
65368;SDS011;51970;53.484;49.488;2024-02-28T09:46:44;11.90;;;3.45;;
65368;SDS011;51970;53.484;49.488;2024-02-28T09:49:11;11.73;;;5.10;;
65368;SDS011;51970;53.484;49.488;2024-02-28T09:51:37;13.13;;;3.60;;
65368;SDS011;51970;53.484;49.488;2024-02-28T09:54:03;14.75;;;4.13;;
65368;SDS011;51970;53.484;49.488;2024-02-28T09:56:33;13.30;;;4.25;;
65368;SDS011;51970;53.484;49.488;2024-02-28T09:59:00;8.20;;;3.60;;
65368;SDS011;51970;53.484;49.488;2024-02-28T10:01:28;15.00;;;4.20;;
65368;SDS011;51970;53.484;49.488;2024-02-28T10:03:57;10.30;;;4.07;;
65368;SDS011;51970;53.484;49.488;2024-02-28T10:06:26;9.45;;;3.65;;
65368;SDS011;51970;53.484;49.488;2024-02-28T10:08:53;15.02;;;4.43;;
65368;SDS011;51970;53.484;49.488;2024-02-28T10:13:48;13.73;;;4.20;;
65368;SDS011;51970;53.484;49.488;2024-02-28T10:16:15;9.65;;;4.97;;
65368;SDS011;51970;53.484;49.488;2024-02-28T10:18:44;12.38;;;5.70;;
65368;SDS011;51970;53.484;49.488;2024-02-28T10:21:11;14.30;;;4.47;;
65368;SDS011;51970;53.484;49.488;2024-02-28T10:23:38;12.60;;;5.00;;
65368;SDS011;51970;53.484;49.488;2024-02-28T10:26:04;8.25;;;3.30;;
65368;SDS011;51970;53.484;49.488;2024-02-28T10:28:31;9.32;;;3.88;;
65368;SDS011;51970;53.484;49.488;2024-02-28T10:30:57;15.55;;;4.05;;
65368;SDS011;51970;53.484;49.488;2024-02-28T10:33:25;9.20;;;4.22;;
65368;SDS011;51970;53.484;49.488;2024-02-28T10:35:54;15.63;;;3.28;;
65368;SDS011;51970;53.484;49.488;2024-02-28T10:38:21;10.82;;;4.13;;
65368;SDS011;51970;53.484;49.488;2024-02-28T10:40:48;16.85;;;3.90;;
65368;SDS011;51970;53.484;49.488;2024-02-28T10:43:16;9.35;;;3.03;;
65368;SDS011;51970;53.484;49.488;2024-02-28T10:45:45;8.05;;;3.13;;
65368;SDS011;51970;53.484;49.488;2024-02-28T10:48:14;8.18;;;4.10;;
65368;SDS011;51970;53.484;49.488;2024-02-28T10:50:43;7.78;;;3.53;;
65368;SDS011;51970;53.484;49.488;2024-02-28T10:53:13;7.80;;;2.88;;
65368;SDS011;51970;53.484;49.488;2024-02-28T10:55:43;7.57;;;3.28;;
65368;SDS011;51970;53.484;49.488;2024-02-28T10:58:13;7.15;;;4.05;;
65368;SDS011;51970;53.484;49.488;2024-02-28T11:00:41;7.78;;;3.53;;
65368;SDS011;51970;53.484;49.488;2024-02-28T11:05:41;8.38;;;3.40;;
65368;SDS011;51970;53.484;49.488;2024-02-28T11:08:11;13.27;;;3.88;;
65368;SDS011;51970;53.484;49.488;2024-02-28T11:10:45;10.82;;;4.20;;
65368;SDS011;51970;53.484;49.488;2024-02-28T11:13:24;11.00;;;4.72;;
65368;SDS011;51970;53.484;49.488;2024-02-28T11:15:52;7.05;;;4.03;;
65368;SDS011;51970;53.484;49.488;2024-02-28T11:18:18;10.15;;;3.45;;
65368;SDS011;51970;53.484;49.488;2024-02-28T11:20:45;9.65;;;3.25;;
65368;SDS011;51970;53.484;49.488;2024-02-28T11:23:14;17.88;;;3.75;;
65368;SDS011;51970;53.484;49.488;2024-02-28T11:25:42;8.10;;;3.90;;
65368;SDS011;51970;53.484;49.488;2024-02-28T11:28:11;7.78;;;3.72;;
65368;SDS011;51970;53.484;49.488;2024-02-28T11:30:38;10.55;;;3.75;;
65368;SDS011;51970;53.484;49.488;2024-02-28T11:33:04;6.03;;;2.67;;
65368;SDS011;51970;53.484;49.488;2024-02-28T11:35:30;7.85;;;3.15;;
65368;SDS011;51970;53.484;49.488;2024-02-28T11:37:56;8.13;;;3.30;;
65368;SDS011;51970;53.484;49.488;2024-02-28T11:40:25;8.38;;;3.97;;
65368;SDS011;51970;53.484;49.488;2024-02-28T11:42:52;8.68;;;3.47;;
65368;SDS011;51970;53.484;49.488;2024-02-28T11:45:20;7.95;;;3.28;;
65368;SDS011;51970;53.484;49.488;2024-02-28T11:47:46;6.97;;;3.28;;
65368;SDS011;51970;53.484;49.488;2024-02-28T11:50:13;8.32;;;3.60;;
65368;SDS011;51970;53.484;49.488;2024-02-28T11:52:45;9.70;;;3.22;;
65368;SDS011;51970;53.484;49.488;2024-02-28T11:55:12;12.02;;;4.38;;
65368;SDS011;51970;53.484;49.488;2024-02-28T11:57:38;11.68;;;4.10;;
65368;SDS011;51970;53.484;49.488;2024-02-28T12:00:08;10.15;;;4.20;;
65368;SDS011;51970;53.484;49.488;2024-02-28T12:02:43;11.60;;;4.43;;
65368;SDS011;51970;53.484;49.488;2024-02-28T12:05:09;7.50;;;3.40;;
65368;SDS011;51970;53.484;49.488;2024-02-28T12:07:36;10.35;;;3.83;;
65368;SDS011;51970;53.484;49.488;2024-02-28T12:10:02;10.65;;;4.55;;
65368;SDS011;51970;53.484;49.488;2024-02-28T12:12:28;10.98;;;3.33;;
65368;SDS011;51970;53.484;49.488;2024-02-28T12:14:58;7.85;;;3.08;;
65368;SDS011;51970;53.484;49.488;2024-02-28T12:17:25;9.52;;;3.30;;
65368;SDS011;51970;53.484;49.488;2024-02-28T12:19:52;9.00;;;3.40;;
65368;SDS011;51970;53.484;49.488;2024-02-28T12:22:18;8.02;;;4.18;;
65368;SDS011;51970;53.484;49.488;2024-02-28T12:24:44;8.50;;;2.88;;
65368;SDS011;51970;53.484;49.488;2024-02-28T12:27:11;12.25;;;3.53;;
65368;SDS011;51970;53.484;49.488;2024-02-28T12:29:37;10.85;;;3.50;;
65368;SDS011;51970;53.484;49.488;2024-02-28T12:32:03;12.30;;;3.42;;
65368;SDS011;51970;53.484;49.488;2024-02-28T12:34:29;9.20;;;4.22;;
65368;SDS011;51970;53.484;49.488;2024-02-28T12:36:56;8.98;;;2.88;;
65368;SDS011;51970;53.484;49.488;2024-02-28T12:39:22;9.43;;;3.35;;
65368;SDS011;51970;53.484;49.488;2024-02-28T12:41:48;8.35;;;3.28;;
65368;SDS011;51970;53.484;49.488;2024-02-28T12:44:14;9.77;;;3.47;;
65368;SDS011;51970;53.484;49.488;2024-02-28T12:46:40;8.95;;;3.70;;
65368;SDS011;51970;53.484;49.488;2024-02-28T12:49:07;9.20;;;2.88;;
65368;SDS011;51970;53.484;49.488;2024-02-28T12:51:37;7.85;;;3.47;;
65368;SDS011;51970;53.484;49.488;2024-02-28T12:54:11;8.48;;;3.72;;
65368;SDS011;51970;53.484;49.488;2024-02-28T12:56:38;15.27;;;4.15;;
65368;SDS011;51970;53.484;49.488;2024-02-28T12:59:06;13.45;;;3.75;;
65368;SDS011;51970;53.484;49.488;2024-02-28T13:01:35;7.50;;;3.03;;
65368;SDS011;51970;53.484;49.488;2024-02-28T13:04:01;9.25;;;3.75;;
65368;SDS011;51970;53.484;49.488;2024-02-28T13:06:28;13.50;;;3.58;;
65368;SDS011;51970;53.484;49.488;2024-02-28T13:08:54;6.90;;;2.75;;
65368;SDS011;51970;53.484;49.488;2024-02-28T13:11:22;8.20;;;2.95;;
65368;SDS011;51970;53.484;49.488;2024-02-28T13:13:49;7.13;;;4.15;;
65368;SDS011;51970;53.484;49.488;2024-02-28T13:16:17;7.68;;;3.25;;
65368;SDS011;51970;53.484;49.488;2024-02-28T13:18:47;11.48;;;4.63;;
65368;SDS011;51970;53.484;49.488;2024-02-28T13:21:13;8.00;;;3.17;;
65368;SDS011;51970;53.484;49.488;2024-02-28T13:23:39;13.68;;;4.10;;
65368;SDS011;51970;53.484;49.488;2024-02-28T13:26:06;6.15;;;2.85;;
65368;SDS011;51970;53.484;49.488;2024-02-28T13:28:33;20.35;;;5.25;;
65368;SDS011;51970;53.484;49.488;2024-02-28T13:31:01;8.48;;;4.45;;
65368;SDS011;51970;53.484;49.488;2024-02-28T13:33:28;12.82;;;4.70;;
65368;SDS011;51970;53.484;49.488;2024-02-28T13:35:54;8.20;;;3.63;;
65368;SDS011;51970;53.484;49.488;2024-02-28T13:38:20;8.07;;;3.58;;
65368;SDS011;51970;53.484;49.488;2024-02-28T13:40:47;8.05;;;2.72;;
65368;SDS011;51970;53.484;49.488;2024-02-28T13:43:15;11.10;;;2.85;;
65368;SDS011;51970;53.484;49.488;2024-02-28T13:45:48;9.15;;;3.15;;
65368;SDS011;51970;53.484;49.488;2024-02-28T13:48:22;9.05;;;3.85;;
65368;SDS011;51970;53.484;49.488;2024-02-28T13:50:52;10.90;;;3.80;;
65368;SDS011;51970;53.484;49.488;2024-02-28T13:53:18;7.72;;;4.03;;
65368;SDS011;51970;53.484;49.488;2024-02-28T13:55:44;9.20;;;4.03;;
65368;SDS011;51970;53.484;49.488;2024-02-28T13:58:14;13.32;;;4.40;;
65368;SDS011;51970;53.484;49.488;2024-02-28T14:00:43;9.85;;;4.13;;
65368;SDS011;51970;53.484;49.488;2024-02-28T14:03:13;8.23;;;4.05;;
65368;SDS011;51970;53.484;49.488;2024-02-28T14:05:40;11.07;;;3.83;;
65368;SDS011;51970;53.484;49.488;2024-02-28T14:08:06;8.43;;;3.42;;
65368;SDS011;51970;53.484;49.488;2024-02-28T14:10:34;11.75;;;3.65;;
65368;SDS011;51970;53.484;49.488;2024-02-28T14:13:00;9.27;;;4.07;;
65368;SDS011;51970;53.484;49.488;2024-02-28T14:15:27;9.93;;;4.30;;
65368;SDS011;51970;53.484;49.488;2024-02-28T14:17:53;8.15;;;3.47;;
65368;SDS011;51970;53.484;49.488;2024-02-28T14:20:19;8.23;;;3.10;;
65368;SDS011;51970;53.484;49.488;2024-02-28T14:22:46;10.60;;;3.58;;
65368;SDS011;51970;53.484;49.488;2024-02-28T14:25:13;9.07;;;3.80;;
65368;SDS011;51970;53.484;49.488;2024-02-28T14:27:41;9.60;;;3.70;;
65368;SDS011;51970;53.484;49.488;2024-02-28T14:30:09;15.60;;;4.32;;
65368;SDS011;51970;53.484;49.488;2024-02-28T14:32:36;10.07;;;3.65;;
65368;SDS011;51970;53.484;49.488;2024-02-28T14:35:04;7.55;;;3.25;;
65368;SDS011;51970;53.484;49.488;2024-02-28T14:37:34;9.32;;;4.35;;
65368;SDS011;51970;53.484;49.488;2024-02-28T14:40:01;13.07;;;6.10;;
65368;SDS011;51970;53.484;49.488;2024-02-28T14:42:32;8.07;;;3.78;;
65368;SDS011;51970;53.484;49.488;2024-02-28T14:44:58;9.48;;;3.33;;
65368;SDS011;51970;53.484;49.488;2024-02-28T14:47:25;10.88;;;4.10;;
65368;SDS011;51970;53.484;49.488;2024-02-28T14:49:52;7.50;;;3.25;;
65368;SDS011;51970;53.484;49.488;2024-02-28T14:52:18;7.93;;;3.83;;
65368;SDS011;51970;53.484;49.488;2024-02-28T14:54:44;11.40;;;4.05;;
65368;SDS011;51970;53.484;49.488;2024-02-28T14:57:11;7.47;;;4.20;;
65368;SDS011;51970;53.484;49.488;2024-02-28T14:59:38;11.15;;;4.78;;
65368;SDS011;51970;53.484;49.488;2024-02-28T15:02:04;8.82;;;3.60;;
65368;SDS011;51970;53.484;49.488;2024-02-28T15:04:30;9.15;;;4.15;;
65368;SDS011;51970;53.484;49.488;2024-02-28T15:06:56;8.57;;;4.13;;
65368;SDS011;51970;53.484;49.488;2024-02-28T15:09:22;7.90;;;3.80;;
65368;SDS011;51970;53.484;49.488;2024-02-28T15:11:48;8.55;;;3.50;;
65368;SDS011;51970;53.484;49.488;2024-02-28T15:14:15;8.65;;;4.35;;
65368;SDS011;51970;53.484;49.488;2024-02-28T15:16:41;12.45;;;4.30;;
65368;SDS011;51970;53.484;49.488;2024-02-28T15:19:07;9.80;;;4.22;;
65368;SDS011;51970;53.484;49.488;2024-02-28T15:21:33;12.38;;;5.85;;
65368;SDS011;51970;53.484;49.488;2024-02-28T15:24:00;8.82;;;4.13;;
65368;SDS011;51970;53.484;49.488;2024-02-28T15:26:26;6.68;;;2.85;;
65368;SDS011;51970;53.484;49.488;2024-02-28T15:28:52;7.63;;;3.70;;